createdAt,value
2022-11-26T00:02:21.760Z,101950.06
2022-11-26T00:04:49.597Z,101949.13
2022-11-26T00:07:25.899Z,101955.09
2022-11-26T00:09:58.039Z,101947.28
2022-11-26T00:12:28.454Z,101950.75
2022-11-26T00:14:55.544Z,101955.09
2022-11-26T00:17:22.885Z,101946.28
2022-11-26T00:19:49.843Z,101958.63
2022-11-26T00:22:43.633Z,101962.00
2022-11-26T00:25:20.162Z,101970.69
2022-11-26T00:27:47.484Z,101969.00
2022-11-26T00:30:17.851Z,101966.41
2022-11-26T00:32:44.860Z,101961.22
2022-11-26T00:35:12.226Z,101968.16
2022-11-26T00:37:58.298Z,101971.53
2022-11-26T00:40:31.371Z,101981.22
2022-11-26T00:43:01.616Z,101980.31
2022-11-26T00:45:31.073Z,101981.06
2022-11-26T00:47:58.023Z,101993.41
2022-11-26T00:50:27.557Z,102001.25
2022-11-26T00:52:56.748Z,102001.34
2022-11-26T00:55:33.617Z,102000.31
2022-11-26T00:58:00.927Z,102000.50
2022-11-26T01:00:31.681Z,102001.44
2022-11-26T01:02:59.202Z,102004.13
2022-11-26T01:05:33.513Z,102009.34
2022-11-26T01:08:25.350Z,102007.59
2022-11-26T01:10:52.294Z,102002.47
2022-11-26T01:13:20.027Z,102011.16
2022-11-26T01:15:47.023Z,102012.03
2022-11-26T01:18:18.004Z,102018.09
2022-11-26T01:20:45.584Z,102022.50
2022-11-26T01:23:14.694Z,102018.06
2022-11-26T01:25:42.389Z,102024.22
2022-11-26T01:28:16.141Z,102025.09
2022-11-26T01:30:43.599Z,102028.63
2022-11-26T01:33:10.723Z,102025.22
2022-11-26T01:35:38.106Z,102028.63
2022-11-26T01:38:05.442Z,102039.09
2022-11-26T01:41:13.011Z,102037.03
2022-11-26T01:43:42.603Z,102037.22
2022-11-26T01:46:16.280Z,102044.09
2022-11-26T01:48:43.609Z,102043.25
2022-11-26T01:51:12.198Z,102036.34
2022-11-26T01:53:44.114Z,102039.78
2022-11-26T01:56:25.635Z,102036.34
2022-11-26T01:59:09.021Z,102035.47
2022-11-26T02:01:36.486Z,102051.16
2022-11-26T02:04:16.663Z,102037.31
2022-11-26T02:06:45.855Z,102049.50
2022-11-26T02:09:13.895Z,102063.44
2022-11-26T02:11:41.010Z,102067.69
2022-11-26T02:14:19.843Z,102060.84
2022-11-26T02:17:26.135Z,102068.72
2022-11-26T02:20:33.350Z,102072.13
2022-11-26T02:23:37.915Z,102071.09
2022-11-26T02:26:35.823Z,102093.81
2022-11-26T02:29:10.725Z,102095.66
2022-11-26T02:31:56.315Z,102090.47
2022-11-26T02:34:48.944Z,102097.41
2022-11-26T02:37:23.048Z,102095.72
2022-11-26T02:39:51.389Z,102096.63
2022-11-26T02:42:32.847Z,102103.59
2022-11-26T02:45:08.736Z,102107.94
2022-11-26T02:47:40.249Z,102109.75
2022-11-26T02:50:15.007Z,102103.72
2022-11-26T02:52:42.903Z,102096.75
2022-11-26T02:55:12.631Z,102092.59
2022-11-26T02:57:47.556Z,102100.38
2022-11-26T03:00:16.491Z,102106.56
2022-11-26T03:03:02.573Z,102099.63
2022-11-26T03:05:35.419Z,102087.28
2022-11-26T03:08:05.067Z,102103.97
2022-11-26T03:10:33.119Z,102103.16
2022-11-26T03:13:00.638Z,102107.53
2022-11-26T03:15:28.305Z,102105.81
2022-11-26T03:17:55.367Z,102107.59
2022-11-26T03:20:22.260Z,102108.53
2022-11-26T03:22:49.140Z,102105.91
2022-11-26T03:25:16.155Z,102112.81
2022-11-26T03:27:43.031Z,102114.44
2022-11-26T03:30:10.326Z,102121.53
2022-11-26T03:32:37.531Z,102138.00
2022-11-26T03:35:05.446Z,102132.81
2022-11-26T03:37:32.520Z,102140.53
2022-11-26T03:39:59.415Z,102138.03
2022-11-26T03:42:26.316Z,102149.34
2022-11-26T03:44:53.223Z,102145.00
2022-11-26T03:47:20.100Z,102147.63
2022-11-26T03:49:47.042Z,102138.09
2022-11-26T03:52:13.984Z,102143.28
2022-11-26T03:54:40.928Z,102132.06
2022-11-26T03:57:07.951Z,102142.47
2022-11-26T03:59:34.836Z,102147.63
2022-11-26T04:02:01.716Z,102154.56
2022-11-26T04:04:28.606Z,102152.88
2022-11-26T04:06:55.491Z,102161.59
2022-11-26T04:09:22.359Z,102161.66
2022-11-26T04:11:49.268Z,102162.53
2022-11-26T04:14:16.454Z,102165.09
2022-11-26T04:16:43.430Z,102166.91
2022-11-26T04:19:10.322Z,102158.25
2022-11-26T04:21:37.252Z,102167.78
2022-11-26T04:24:04.283Z,102171.25
2022-11-26T04:26:31.219Z,102174.75
2022-11-26T04:28:58.084Z,102178.22
2022-11-26T04:31:25.236Z,102180.00
2022-11-26T04:33:52.319Z,102199.16
2022-11-26T04:36:19.211Z,102188.78
2022-11-26T04:38:46.086Z,102196.56
2022-11-26T04:41:13.022Z,102191.38
2022-11-26T04:43:39.896Z,102193.97
2022-11-26T04:46:06.887Z,102205.25
2022-11-26T04:48:33.801Z,102203.56
2022-11-26T04:51:00.679Z,102199.19
2022-11-26T04:53:27.601Z,102200.13
2022-11-26T04:55:54.488Z,102201.88
2022-11-26T04:58:21.501Z,102208.00
2022-11-26T05:00:51.327Z,102210.63
2022-11-26T05:03:19.200Z,102214.09
2022-11-26T05:05:47.089Z,102218.47
2022-11-26T05:08:14.074Z,102224.63
2022-11-26T05:10:40.981Z,102222.03
2022-11-26T05:13:07.862Z,102232.47
2022-11-26T05:15:34.747Z,102230.78
2022-11-26T05:18:01.605Z,102237.72
2022-11-26T05:20:28.499Z,102250.78
2022-11-26T05:22:55.388Z,102253.41
2022-11-26T05:25:22.291Z,102256.88
2022-11-26T05:27:49.183Z,102256.00
2022-11-26T05:30:16.317Z,102258.59
2022-11-26T05:32:43.207Z,102251.50
2022-11-26T05:35:10.590Z,102265.47
2022-11-26T05:37:37.640Z,102266.34
2022-11-26T05:40:05.893Z,102269.56
2022-11-26T05:42:32.930Z,102272.75
2022-11-26T05:44:59.980Z,102274.53
2022-11-26T05:47:26.855Z,102267.59
2022-11-26T05:49:53.999Z,102266.66
2022-11-26T05:52:21.618Z,102268.53
2022-11-26T05:54:48.575Z,102270.28
2022-11-26T05:57:15.522Z,102275.56
2022-11-26T05:59:42.644Z,102263.19
2022-11-26T06:02:09.725Z,102279.13
2022-11-26T06:04:36.946Z,102262.56
2022-11-26T06:07:04.073Z,102276.53
2022-11-26T06:09:30.954Z,102279.09
2022-11-26T06:11:57.861Z,102289.50
2022-11-26T06:14:24.738Z,102292.09
2022-11-26T06:16:51.713Z,102296.38
2022-11-26T06:19:18.628Z,102289.09
2022-11-26T06:21:45.527Z,102302.16
2022-11-26T06:24:12.410Z,102303.13
2022-11-26T06:26:39.281Z,102311.00
2022-11-26T06:29:06.295Z,102302.34
2022-11-26T06:31:33.671Z,102318.03
2022-11-26T06:34:00.637Z,102316.34
2022-11-26T06:36:27.671Z,102313.63
2022-11-26T06:38:54.542Z,102322.47
2022-11-26T06:41:21.591Z,102325.94
2022-11-26T06:43:48.474Z,102327.66
2022-11-26T06:46:15.438Z,102325.94
2022-11-26T06:48:42.395Z,102335.59
2022-11-26T06:51:16.327Z,102346.91
2022-11-26T06:53:43.592Z,102346.06
2022-11-26T06:56:18.104Z,102350.41
2022-11-26T06:58:47.285Z,102360.00
2022-11-26T07:01:26.404Z,102364.31
2022-11-26T07:03:55.024Z,102363.47
2022-11-26T07:06:31.940Z,102366.09
2022-11-26T07:09:04.324Z,102371.28
2022-11-26T07:11:31.227Z,102374.75
2022-11-26T07:13:58.285Z,102374.84
2022-11-26T07:16:25.609Z,102372.22
2022-11-26T07:19:02.166Z,102373.97
2022-11-26T07:21:30.266Z,102374.84
2022-11-26T07:23:57.260Z,102380.91
2022-11-26T07:26:24.179Z,102379.25
2022-11-26T07:28:51.773Z,102376.72
2022-11-26T07:31:21.982Z,102386.28
2022-11-26T07:33:49.466Z,102384.56
2022-11-26T07:36:20.983Z,102396.69
2022-11-26T07:38:48.064Z,102386.34
2022-11-26T07:41:19.261Z,102399.47
2022-11-26T07:43:46.938Z,102402.06
2022-11-26T07:46:18.561Z,102403.81
2022-11-26T07:48:46.005Z,102400.44
2022-11-26T07:51:27.337Z,102403.03
2022-11-26T07:53:56.003Z,102404.69
2022-11-26T07:56:22.940Z,102404.03
2022-11-26T07:58:49.878Z,102403.13
2022-11-26T08:01:29.742Z,102409.28
2022-11-26T08:03:58.475Z,102411.09
2022-11-26T08:06:29.245Z,102417.25
2022-11-26T08:08:58.652Z,102423.41
2022-11-26T08:11:29.719Z,102419.03
2022-11-26T08:14:00.480Z,102426.25
2022-11-26T08:16:29.060Z,102432.44
2022-11-26T08:18:59.503Z,102438.59
2022-11-26T08:21:26.957Z,102440.47
2022-11-26T08:23:54.599Z,102437.91
2022-11-26T08:26:29.332Z,102443.22
2022-11-26T08:29:01.008Z,102445.09
2022-11-26T08:31:28.738Z,102449.56
2022-11-26T08:34:00.581Z,102454.88
2022-11-26T08:36:29.467Z,102456.66
2022-11-26T08:38:57.111Z,102463.72
2022-11-26T08:41:24.322Z,102456.00
2022-11-26T08:44:06.029Z,102462.22
2022-11-26T08:46:33.893Z,102464.91
2022-11-26T08:49:00.935Z,102471.94
2022-11-26T08:51:27.819Z,102478.97
2022-11-26T08:53:54.687Z,102485.19
2022-11-26T08:56:21.848Z,102474.78
2022-11-26T08:58:49.257Z,102486.94
2022-11-26T09:01:24.736Z,102490.44
2022-11-26T09:03:54.141Z,102496.50
2022-11-26T09:06:23.139Z,102487.78
2022-11-26T09:09:09.062Z,102491.28
2022-11-26T09:11:41.395Z,102489.63
2022-11-26T09:14:09.361Z,102507.88
2022-11-26T09:16:36.382Z,102501.84
2022-11-26T09:19:06.199Z,102502.72
2022-11-26T09:21:35.346Z,102502.66
2022-11-26T09:24:02.994Z,102507.00
2022-11-26T09:26:31.960Z,102509.59
2022-11-26T09:28:59.305Z,102517.44
2022-11-26T09:31:26.655Z,102520.09
2022-11-26T09:33:58.642Z,102514.88
2022-11-26T09:36:26.214Z,102513.88
2022-11-26T09:38:57.539Z,102513.19
2022-11-26T09:41:52.113Z,102517.53
2022-11-26T09:44:37.115Z,102524.47
2022-11-26T09:47:22.414Z,102527.00
2022-11-26T09:50:07.130Z,102531.34
2022-11-26T09:53:13.428Z,102526.13
2022-11-26T09:55:45.347Z,102534.94
2022-11-26T09:58:33.155Z,102533.22
2022-11-26T10:01:01.190Z,102537.56
2022-11-26T10:03:34.208Z,102539.38
2022-11-26T10:06:24.163Z,102541.84
2022-11-26T10:09:20.590Z,102540.25
2022-11-26T10:12:24.955Z,102546.41
2022-11-26T10:15:28.782Z,102545.47
2022-11-26T10:18:28.364Z,102540.25
2022-11-26T10:21:11.546Z,102552.66
2022-11-26T10:24:14.739Z,102559.63
2022-11-26T10:26:41.923Z,102552.69
2022-11-26T10:29:38.515Z,102544.88
2022-11-26T10:32:40.829Z,102550.03
2022-11-26T10:35:15.330Z,102546.88
2022-11-26T10:37:42.483Z,102548.69
2022-11-26T10:40:29.347Z,102558.34
2022-11-26T10:43:08.415Z,102558.41
2022-11-26T10:45:42.492Z,102554.06
2022-11-26T10:48:30.615Z,102558.31
2022-11-26T10:51:30.173Z,102565.47
2022-11-26T10:54:00.451Z,102572.47
2022-11-26T10:56:42.296Z,102568.97
2022-11-26T10:59:40.660Z,102583.84
2022-11-26T11:02:20.120Z,102578.72
2022-11-26T11:04:51.791Z,102574.44
2022-11-26T11:07:38.339Z,102584.00
2022-11-26T11:10:08.152Z,102584.88
2022-11-26T11:12:43.559Z,102591.03
2022-11-26T11:15:26.807Z,102591.03
2022-11-26T11:18:04.123Z,102591.19
2022-11-26T11:20:35.409Z,102590.41
2022-11-26T11:23:19.305Z,102594.75
2022-11-26T11:26:04.143Z,102591.28
2022-11-26T11:28:34.316Z,102597.34
2022-11-26T11:31:11.211Z,102599.19
2022-11-26T11:33:38.333Z,102596.50
2022-11-26T11:36:14.217Z,102596.47
2022-11-26T11:38:54.296Z,102600.00
2022-11-26T11:41:29.110Z,102601.78
2022-11-26T11:44:05.222Z,102600.84
2022-11-26T11:47:17.919Z,102594.06
2022-11-26T11:50:23.400Z,102599.28
2022-11-26T11:53:36.355Z,102603.63
2022-11-26T11:56:25.024Z,102596.59
2022-11-26T11:59:19.466Z,102608.03
2022-11-26T12:01:52.965Z,102612.41
2022-11-26T12:04:56.631Z,102611.59
2022-11-26T12:07:38.751Z,102615.13
2022-11-26T12:10:16.671Z,102614.34
2022-11-26T12:12:53.427Z,102610.94
2022-11-26T12:15:55.516Z,102610.09
2022-11-26T12:18:43.969Z,102609.25
2022-11-26T12:21:16.287Z,102614.53
2022-11-26T12:23:58.570Z,102605.66
2022-11-26T12:26:37.175Z,102616.19
2022-11-26T12:29:18.583Z,102619.69
2022-11-26T12:31:51.544Z,102611.81
2022-11-26T12:34:33.714Z,102617.13
2022-11-26T12:37:24.299Z,102619.75
2022-11-26T12:40:00.429Z,102624.91
2022-11-26T12:42:45.613Z,102617.13
2022-11-26T12:45:42.732Z,102612.63
2022-11-26T12:48:47.982Z,102621.31
2022-11-26T12:51:29.883Z,102615.13
2022-11-26T12:54:19.981Z,102614.13
2022-11-26T12:57:12.675Z,102620.19
2022-11-26T13:00:06.266Z,102624.47
2022-11-26T13:02:37.897Z,102632.28
2022-11-26T13:05:05.519Z,102629.69
2022-11-26T13:08:03.370Z,102635.84
2022-11-26T13:11:05.924Z,102633.25
2022-11-26T13:14:05.031Z,102638.44
2022-11-26T13:16:47.328Z,102631.41
2022-11-26T13:19:27.345Z,102632.22
2022-11-26T13:22:32.155Z,102634.81
2022-11-26T13:25:35.121Z,102635.69
2022-11-26T13:28:34.455Z,102634.03
2022-11-26T13:31:47.962Z,102635.78
2022-11-26T13:34:44.465Z,102639.28
2022-11-26T13:37:48.652Z,102637.44
2022-11-26T13:40:58.895Z,102631.44
2022-11-26T13:44:12.451Z,102636.72
2022-11-26T13:46:47.062Z,102629.00
2022-11-26T13:49:43.160Z,102636.91
2022-11-26T13:52:24.444Z,102628.28
2022-11-26T13:55:07.514Z,102627.50
2022-11-26T13:57:46.700Z,102616.97
2022-11-26T14:00:29.344Z,102638.78
2022-11-26T14:02:57.394Z,102642.19
2022-11-26T14:05:50.263Z,102641.22
2022-11-26T14:08:41.409Z,102646.44
2022-11-26T14:11:09.341Z,102642.03
2022-11-26T14:13:36.994Z,102649.84
2022-11-26T14:16:09.052Z,102647.16
2022-11-26T14:18:53.167Z,102640.13
2022-11-26T14:21:21.498Z,102649.66
2022-11-26T14:23:55.830Z,102642.63
2022-11-26T14:26:34.593Z,102649.50
2022-11-26T14:29:09.845Z,102639.03
2022-11-26T14:31:49.529Z,102639.03
2022-11-26T14:34:27.310Z,102648.50
2022-11-26T14:37:02.284Z,102651.91
2022-11-26T14:39:29.652Z,102646.66
2022-11-26T14:42:04.075Z,102652.66
2022-11-26T14:44:33.567Z,102645.56
2022-11-26T14:47:20.837Z,102649.97
2022-11-26T14:49:56.258Z,102643.88
2022-11-26T14:52:39.448Z,102651.63
2022-11-26T14:55:17.942Z,102653.31
2022-11-26T14:57:51.525Z,102648.88
2022-11-26T15:00:27.089Z,102657.50
2022-11-26T15:02:54.734Z,102660.94
2022-11-26T15:05:29.158Z,102668.69
2022-11-26T15:08:14.074Z,102669.47
2022-11-26T15:10:54.027Z,102671.22
2022-11-26T15:13:36.367Z,102672.16
2022-11-26T15:16:36.363Z,102668.66
2022-11-26T15:19:05.719Z,102670.38
2022-11-26T15:21:35.891Z,102684.31
2022-11-26T15:24:08.394Z,102677.38
2022-11-26T15:26:36.837Z,102686.94
2022-11-26T15:29:41.406Z,102680.03
2022-11-26T15:32:30.479Z,102677.28
2022-11-26T15:35:03.603Z,102662.44
2022-11-26T15:37:30.675Z,102666.94
2022-11-26T15:40:25.090Z,102663.44
2022-11-26T15:43:03.139Z,102668.66
2022-11-26T15:45:41.236Z,102667.88
2022-11-26T15:48:50.509Z,102649.47
2022-11-26T15:51:32.131Z,102660.88
2022-11-26T15:54:03.637Z,102656.56
2022-11-26T15:56:37.088Z,102662.66
2022-11-26T15:59:15.388Z,102660.94
2022-11-26T16:01:46.361Z,102658.28
2022-11-26T16:04:43.094Z,102656.50
2022-11-26T16:07:17.403Z,102657.50
2022-11-26T16:09:45.763Z,102655.81
2022-11-26T16:12:35.308Z,102655.81
2022-11-26T16:15:17.929Z,102657.66
2022-11-26T16:17:45.608Z,102655.91
2022-11-26T16:20:25.454Z,102663.81
2022-11-26T16:22:57.979Z,102661.19
2022-11-26T16:25:28.331Z,102663.88
2022-11-26T16:28:10.381Z,102665.59
2022-11-26T16:30:43.271Z,102678.66
2022-11-26T16:33:10.787Z,102673.50
2022-11-26T16:35:46.568Z,102677.94
2022-11-26T16:38:25.259Z,102687.50
2022-11-26T16:40:52.362Z,102683.94
2022-11-26T16:43:19.641Z,102686.50
2022-11-26T16:45:48.623Z,102688.31
2022-11-26T16:48:27.580Z,102700.41
2022-11-26T16:50:56.301Z,102699.53
2022-11-26T16:53:23.673Z,102700.41
2022-11-26T16:55:52.144Z,102697.69
2022-11-26T16:58:37.905Z,102704.66
2022-11-26T17:01:04.858Z,102691.28
2022-11-26T17:03:34.889Z,102710.75
2022-11-26T17:06:16.214Z,102710.66
2022-11-26T17:08:49.126Z,102710.75
2022-11-26T17:11:16.794Z,102714.22
2022-11-26T17:13:43.674Z,102713.34
2022-11-26T17:16:15.173Z,102715.94
2022-11-26T17:18:42.192Z,102708.91
2022-11-26T17:21:09.185Z,102718.66
2022-11-26T17:23:36.243Z,102711.78
2022-11-26T17:26:11.633Z,102724.47
2022-11-26T17:28:38.518Z,102726.44
2022-11-26T17:31:05.504Z,102712.56
2022-11-26T17:33:32.443Z,102726.09
2022-11-26T17:35:59.340Z,102719.31
2022-11-26T17:38:26.245Z,102737.06
2022-11-26T17:40:53.144Z,102720.63
2022-11-26T17:43:20.020Z,102721.50
2022-11-26T17:45:46.965Z,102721.53
2022-11-26T17:48:14.267Z,102730.22
2022-11-26T17:50:41.572Z,102725.78
2022-11-26T17:53:08.696Z,102724.03
2022-11-26T17:55:35.662Z,102718.75
2022-11-26T17:58:02.535Z,102717.94
2022-11-26T18:00:30.189Z,102723.94
2022-11-26T18:02:57.932Z,102726.56
2022-11-26T18:05:25.389Z,102726.50
2022-11-26T18:07:52.381Z,102715.19
2022-11-26T18:10:22.212Z,102721.25
2022-11-26T18:12:53.152Z,102720.41
2022-11-26T18:15:23.744Z,102719.53
2022-11-26T18:17:53.625Z,102714.09
2022-11-26T18:20:24.376Z,102722.84
2022-11-26T18:22:54.092Z,102714.09
2022-11-26T18:25:21.605Z,102719.31
2022-11-26T18:27:48.561Z,102711.44
2022-11-26T18:30:17.060Z,102707.03
2022-11-26T18:32:44.512Z,102714.00
2022-11-26T18:35:11.634Z,102708.75
2022-11-26T18:37:40.095Z,102711.28
2022-11-26T18:40:11.422Z,102706.00
2022-11-26T18:42:38.661Z,102706.88
2022-11-26T18:45:09.555Z,102708.53
2022-11-26T18:47:36.427Z,102705.03
2022-11-26T18:50:04.088Z,102698.00
2022-11-26T18:52:30.958Z,102708.50
2022-11-26T18:54:58.056Z,102698.78
2022-11-26T18:57:24.939Z,102700.59
2022-11-26T18:59:51.811Z,102709.31
2022-11-26T19:02:18.773Z,102698.78
2022-11-26T19:04:46.153Z,102692.69
2022-11-26T19:07:14.190Z,102695.22
2022-11-26T19:09:41.696Z,102694.34
2022-11-26T19:12:08.991Z,102700.44
2022-11-26T19:14:35.990Z,102693.47
2022-11-26T19:17:02.906Z,102694.28
2022-11-26T19:19:29.987Z,102690.72
2022-11-26T19:22:01.118Z,102689.75
2022-11-26T19:24:29.068Z,102692.28
2022-11-26T19:26:56.139Z,102687.84
2022-11-26T19:29:23.125Z,102684.28
2022-11-26T19:31:49.996Z,102689.59
2022-11-26T19:34:17.234Z,102681.69
2022-11-26T19:36:48.275Z,102696.56
2022-11-26T19:39:16.471Z,102694.72
2022-11-26T19:41:43.661Z,102707.59
2022-11-26T19:44:10.584Z,102697.25
2022-11-26T19:46:41.113Z,102696.38
2022-11-26T19:49:12.191Z,102699.00
2022-11-26T19:51:39.308Z,102701.66
2022-11-26T19:54:07.160Z,102700.00
2022-11-26T19:56:34.575Z,102696.56
2022-11-26T19:59:02.320Z,102703.59
2022-11-26T20:01:32.679Z,102703.66
2022-11-26T20:04:03.305Z,102705.47
2022-11-26T20:06:31.989Z,102691.44
2022-11-26T20:08:59.230Z,102694.13
2022-11-26T20:11:28.154Z,102702.97
2022-11-26T20:13:56.297Z,102706.44
2022-11-26T20:16:28.088Z,102719.50
2022-11-26T20:18:55.855Z,102716.84
2022-11-26T20:21:27.047Z,102711.63
2022-11-26T20:23:57.284Z,102709.03
2022-11-26T20:26:29.173Z,102712.53
2022-11-26T20:29:00.268Z,102707.31
2022-11-26T20:31:27.340Z,102700.19
2022-11-26T20:33:55.475Z,102699.47
2022-11-26T20:36:23.574Z,102703.84
2022-11-26T20:38:55.443Z,102701.22
2022-11-26T20:41:24.146Z,102712.56
2022-11-26T20:43:58.245Z,102710.84
2022-11-26T20:46:27.490Z,102706.44
2022-11-26T20:48:54.773Z,102706.25
2022-11-26T20:51:22.607Z,102709.91
2022-11-26T20:53:51.116Z,102706.44
2022-11-26T20:56:20.850Z,102715.06
2022-11-26T20:58:48.232Z,102705.50
2022-11-26T21:01:21.597Z,102711.56
2022-11-26T21:03:49.543Z,102700.97
2022-11-26T21:06:18.829Z,102708.81
2022-11-26T21:08:46.143Z,102708.88
2022-11-26T21:11:15.180Z,102705.34
2022-11-26T21:13:42.862Z,102703.59
2022-11-26T21:16:16.507Z,102698.31
2022-11-26T21:18:44.144Z,102703.53
2022-11-26T21:21:16.148Z,102704.31
2022-11-26T21:23:44.774Z,102712.97
2022-11-26T21:26:19.635Z,102709.44
2022-11-26T21:28:55.995Z,102722.44
2022-11-26T21:31:24.043Z,102713.66
2022-11-26T21:34:02.626Z,102717.09
2022-11-26T21:36:31.830Z,102711.94
2022-11-26T21:38:58.784Z,102712.81
2022-11-26T21:41:26.376Z,102708.50
2022-11-26T21:43:53.820Z,102712.88
2022-11-26T21:46:26.694Z,102724.03
2022-11-26T21:48:55.183Z,102722.44
2022-11-26T21:51:24.053Z,102709.34
2022-11-26T21:53:53.304Z,102712.00
2022-11-26T21:56:26.275Z,102712.91
2022-11-26T21:58:53.520Z,102713.84
2022-11-26T22:01:26.154Z,102712.91
2022-11-26T22:03:56.618Z,102716.44
2022-11-26T22:06:24.241Z,102715.59
2022-11-26T22:08:52.230Z,102719.06
2022-11-26T22:11:25.779Z,102715.59
2022-11-26T22:13:53.420Z,102718.19
2022-11-26T22:16:22.782Z,102706.91
2022-11-26T22:18:51.212Z,102709.53
2022-11-26T22:21:24.666Z,102712.13
2022-11-26T22:23:52.736Z,102715.69
2022-11-26T22:26:20.518Z,102713.94
2022-11-26T22:28:49.602Z,102710.31
2022-11-26T22:31:23.162Z,102712.19
2022-11-26T22:33:54.119Z,102711.31
2022-11-26T22:36:21.031Z,102706.91
2022-11-26T22:38:47.894Z,102708.66
2022-11-26T22:41:15.146Z,102706.88
2022-11-26T22:43:42.539Z,102702.63
2022-11-26T22:46:23.591Z,102706.03
2022-11-26T22:48:55.966Z,102706.91
2022-11-26T22:51:24.436Z,102708.72
2022-11-26T22:54:01.568Z,102706.97
2022-11-26T22:56:29.186Z,102711.34
2022-11-26T22:58:56.494Z,102719.25
2022-11-26T23:01:30.615Z,102715.78
2022-11-26T23:03:59.768Z,102717.47
2022-11-26T23:06:29.395Z,102718.38
2022-11-26T23:08:58.226Z,102716.63
2022-11-26T23:11:38.295Z,102709.66
2022-11-26T23:14:07.446Z,102709.66
2022-11-26T23:16:36.630Z,102703.50
2022-11-26T23:19:04.423Z,102706.91
2022-11-26T23:21:35.303Z,102706.03
2022-11-26T23:24:02.229Z,102707.84
2022-11-26T23:26:32.890Z,102703.44
2022-11-26T23:29:01.660Z,102706.91
2022-11-26T23:31:31.615Z,102711.22
2022-11-26T23:33:59.483Z,102705.06
2022-11-26T23:36:27.996Z,102716.53
2022-11-26T23:38:55.391Z,102708.72
2022-11-26T23:41:22.401Z,102703.50
2022-11-26T23:43:49.540Z,102707.88
2022-11-26T23:46:28.394Z,102700.88
2022-11-26T23:48:55.634Z,102695.44
2022-11-26T23:51:30.997Z,102710.38
2022-11-26T23:53:58.232Z,102713.84
2022-11-26T23:56:29.541Z,102715.50
2022-11-26T23:59:01.608Z,102708.56
